sensor_id;sensor_type;location;lat;lon;timestamp;P1;durP1;ratioP1;P2;durP2;ratioP2
17214;SDS011;8723;51.502;6.918;2024-03-22T00:01:58;30.47;;;24.40;;
17214;SDS011;8723;51.502;6.918;2024-03-22T00:04:25;30.63;;;26.42;;
17214;SDS011;8723;51.502;6.918;2024-03-22T00:06:54;29.77;;;24.75;;
17214;SDS011;8723;51.502;6.918;2024-03-22T00:09:23;30.90;;;25.50;;
17214;SDS011;8723;51.502;6.918;2024-03-22T00:11:49;30.25;;;25.20;;
17214;SDS011;8723;51.502;6.918;2024-03-22T00:14:16;30.52;;;24.42;;
17214;SDS011;8723;51.502;6.918;2024-03-22T00:16:43;30.05;;;23.80;;
17214;SDS011;8723;51.502;6.918;2024-03-22T00:19:10;29.70;;;25.45;;
17214;SDS011;8723;51.502;6.918;2024-03-22T00:21:36;31.42;;;25.08;;
17214;SDS011;8723;51.502;6.918;2024-03-22T00:24:05;29.27;;;24.93;;
17214;SDS011;8723;51.502;6.918;2024-03-22T00:26:31;29.33;;;24.75;;
17214;SDS011;8723;51.502;6.918;2024-03-22T00:28:58;26.98;;;23.13;;
17214;SDS011;8723;51.502;6.918;2024-03-22T00:31:24;27.63;;;23.75;;
17214;SDS011;8723;51.502;6.918;2024-03-22T00:33:52;30.75;;;24.75;;
17214;SDS011;8723;51.502;6.918;2024-03-22T00:36:18;28.55;;;24.05;;
17214;SDS011;8723;51.502;6.918;2024-03-22T00:38:46;28.85;;;24.35;;
17214;SDS011;8723;51.502;6.918;2024-03-22T00:41:13;32.33;;;25.73;;
17214;SDS011;8723;51.502;6.918;2024-03-22T00:43:40;28.77;;;24.50;;
17214;SDS011;8723;51.502;6.918;2024-03-22T00:46:06;30.52;;;24.58;;
17214;SDS011;8723;51.502;6.918;2024-03-22T00:48:34;27.42;;;23.10;;
17214;SDS011;8723;51.502;6.918;2024-03-22T00:51:00;31.20;;;25.13;;
17214;SDS011;8723;51.502;6.918;2024-03-22T00:53:27;32.80;;;25.70;;
17214;SDS011;8723;51.502;6.918;2024-03-22T00:55:54;31.20;;;24.90;;
17214;SDS011;8723;51.502;6.918;2024-03-22T00:58:25;32.40;;;26.05;;
17214;SDS011;8723;51.502;6.918;2024-03-22T01:00:51;32.58;;;25.42;;
17214;SDS011;8723;51.502;6.918;2024-03-22T01:03:19;32.03;;;26.10;;
17214;SDS011;8723;51.502;6.918;2024-03-22T01:05:45;27.58;;;21.92;;
17214;SDS011;8723;51.502;6.918;2024-03-22T01:08:13;31.00;;;25.33;;
17214;SDS011;8723;51.502;6.918;2024-03-22T01:10:39;31.15;;;25.75;;
17214;SDS011;8723;51.502;6.918;2024-03-22T01:13:06;29.98;;;24.48;;
17214;SDS011;8723;51.502;6.918;2024-03-22T01:15:34;31.63;;;25.25;;
17214;SDS011;8723;51.502;6.918;2024-03-22T01:18:01;31.98;;;26.15;;
17214;SDS011;8723;51.502;6.918;2024-03-22T01:20:28;33.33;;;26.63;;
17214;SDS011;8723;51.502;6.918;2024-03-22T01:22:55;34.35;;;26.00;;
17214;SDS011;8723;51.502;6.918;2024-03-22T01:25:21;31.75;;;25.05;;
17214;SDS011;8723;51.502;6.918;2024-03-22T01:27:48;28.73;;;24.80;;
17214;SDS011;8723;51.502;6.918;2024-03-22T01:30:14;34.77;;;25.27;;
17214;SDS011;8723;51.502;6.918;2024-03-22T01:32:43;30.65;;;24.58;;
17214;SDS011;8723;51.502;6.918;2024-03-22T01:35:09;35.55;;;28.23;;
17214;SDS011;8723;51.502;6.918;2024-03-22T01:37:36;33.78;;;26.55;;
17214;SDS011;8723;51.502;6.918;2024-03-22T01:40:04;29.70;;;24.70;;
17214;SDS011;8723;51.502;6.918;2024-03-22T01:42:30;32.70;;;26.38;;
17214;SDS011;8723;51.502;6.918;2024-03-22T01:44:57;30.40;;;25.27;;
17214;SDS011;8723;51.502;6.918;2024-03-22T01:47:24;34.42;;;26.13;;
17214;SDS011;8723;51.502;6.918;2024-03-22T01:49:53;35.88;;;26.48;;
17214;SDS011;8723;51.502;6.918;2024-03-22T01:52:20;31.60;;;24.80;;
17214;SDS011;8723;51.502;6.918;2024-03-22T01:54:48;32.92;;;26.10;;
17214;SDS011;8723;51.502;6.918;2024-03-22T01:57:14;35.08;;;28.05;;
17214;SDS011;8723;51.502;6.918;2024-03-22T01:59:41;33.28;;;27.17;;
17214;SDS011;8723;51.502;6.918;2024-03-22T02:02:08;32.10;;;25.13;;
17214;SDS011;8723;51.502;6.918;2024-03-22T02:04:36;33.78;;;26.30;;
17214;SDS011;8723;51.502;6.918;2024-03-22T02:07:03;33.47;;;26.07;;
17214;SDS011;8723;51.502;6.918;2024-03-22T02:09:31;35.80;;;27.20;;
17214;SDS011;8723;51.502;6.918;2024-03-22T02:11:57;34.25;;;26.88;;
17214;SDS011;8723;51.502;6.918;2024-03-22T02:14:24;34.47;;;27.70;;
17214;SDS011;8723;51.502;6.918;2024-03-22T02:16:51;35.95;;;26.10;;
17214;SDS011;8723;51.502;6.918;2024-03-22T02:19:17;35.17;;;27.52;;
17214;SDS011;8723;51.502;6.918;2024-03-22T02:21:44;36.15;;;27.90;;
17214;SDS011;8723;51.502;6.918;2024-03-22T02:24:12;32.90;;;26.40;;
17214;SDS011;8723;51.502;6.918;2024-03-22T02:26:39;37.38;;;27.92;;
17214;SDS011;8723;51.502;6.918;2024-03-22T02:29:05;33.50;;;26.77;;
17214;SDS011;8723;51.502;6.918;2024-03-22T02:31:32;34.67;;;26.37;;
17214;SDS011;8723;51.502;6.918;2024-03-22T02:33:58;34.40;;;27.52;;
17214;SDS011;8723;51.502;6.918;2024-03-22T02:36:26;35.70;;;26.42;;
17214;SDS011;8723;51.502;6.918;2024-03-22T02:38:52;32.90;;;26.20;;
17214;SDS011;8723;51.502;6.918;2024-03-22T02:41:22;34.75;;;27.27;;
17214;SDS011;8723;51.502;6.918;2024-03-22T02:43:49;35.58;;;27.20;;
17214;SDS011;8723;51.502;6.918;2024-03-22T02:46:19;36.03;;;26.35;;
17214;SDS011;8723;51.502;6.918;2024-03-22T02:48:46;34.13;;;26.70;;
17214;SDS011;8723;51.502;6.918;2024-03-22T02:51:15;33.17;;;27.20;;
17214;SDS011;8723;51.502;6.918;2024-03-22T02:53:43;36.60;;;27.90;;
17214;SDS011;8723;51.502;6.918;2024-03-22T02:56:12;33.35;;;26.38;;
17214;SDS011;8723;51.502;6.918;2024-03-22T02:58:42;34.90;;;26.85;;
17214;SDS011;8723;51.502;6.918;2024-03-22T03:01:11;33.40;;;25.40;;
17214;SDS011;8723;51.502;6.918;2024-03-22T03:03:39;32.15;;;25.17;;
17214;SDS011;8723;51.502;6.918;2024-03-22T03:06:08;36.25;;;27.50;;
17214;SDS011;8723;51.502;6.918;2024-03-22T03:08:38;38.28;;;28.27;;
17214;SDS011;8723;51.502;6.918;2024-03-22T03:11:08;33.40;;;25.33;;
17214;SDS011;8723;51.502;6.918;2024-03-22T03:13:36;34.00;;;26.50;;
17214;SDS011;8723;51.502;6.918;2024-03-22T03:16:07;35.03;;;26.63;;
17214;SDS011;8723;51.502;6.918;2024-03-22T03:18:34;36.17;;;27.40;;
17214;SDS011;8723;51.502;6.918;2024-03-22T03:21:04;34.60;;;27.10;;
17214;SDS011;8723;51.502;6.918;2024-03-22T03:23:32;35.73;;;27.27;;
17214;SDS011;8723;51.502;6.918;2024-03-22T03:26:01;37.17;;;27.77;;
17214;SDS011;8723;51.502;6.918;2024-03-22T03:28:28;35.03;;;27.27;;
17214;SDS011;8723;51.502;6.918;2024-03-22T03:30:57;35.58;;;27.00;;
17214;SDS011;8723;51.502;6.918;2024-03-22T03:33:26;31.15;;;24.92;;
17214;SDS011;8723;51.502;6.918;2024-03-22T03:35:56;32.35;;;24.50;;
17214;SDS011;8723;51.502;6.918;2024-03-22T03:38:24;33.47;;;26.98;;
17214;SDS011;8723;51.502;6.918;2024-03-22T03:40:53;34.50;;;26.50;;
17214;SDS011;8723;51.502;6.918;2024-03-22T03:43:21;32.85;;;26.55;;
17214;SDS011;8723;51.502;6.918;2024-03-22T03:45:50;35.90;;;26.70;;
17214;SDS011;8723;51.502;6.918;2024-03-22T03:48:20;35.17;;;27.88;;
17214;SDS011;8723;51.502;6.918;2024-03-22T03:50:54;35.75;;;27.33;;
17214;SDS011;8723;51.502;6.918;2024-03-22T03:53:25;34.70;;;26.50;;
17214;SDS011;8723;51.502;6.918;2024-03-22T03:55:54;34.50;;;27.15;;
17214;SDS011;8723;51.502;6.918;2024-03-22T03:58:22;34.20;;;26.60;;
17214;SDS011;8723;51.502;6.918;2024-03-22T04:00:50;30.85;;;24.80;;
17214;SDS011;8723;51.502;6.918;2024-03-22T04:03:18;33.83;;;25.05;;
17214;SDS011;8723;51.502;6.918;2024-03-22T04:05:55;34.90;;;26.80;;
17214;SDS011;8723;51.502;6.918;2024-03-22T04:08:25;32.15;;;25.15;;
17214;SDS011;8723;51.502;6.918;2024-03-22T04:10:54;32.63;;;26.08;;
17214;SDS011;8723;51.502;6.918;2024-03-22T04:13:23;33.70;;;26.05;;
17214;SDS011;8723;51.502;6.918;2024-03-22T04:15:51;32.83;;;25.45;;
17214;SDS011;8723;51.502;6.918;2024-03-22T04:18:18;32.78;;;27.13;;
17214;SDS011;8723;51.502;6.918;2024-03-22T04:20:52;31.95;;;25.42;;
17214;SDS011;8723;51.502;6.918;2024-03-22T04:23:19;35.53;;;26.40;;
17214;SDS011;8723;51.502;6.918;2024-03-22T04:25:52;28.50;;;24.05;;
17214;SDS011;8723;51.502;6.918;2024-03-22T04:28:18;29.55;;;24.55;;
17214;SDS011;8723;51.502;6.918;2024-03-22T04:30:53;30.38;;;24.23;;
17214;SDS011;8723;51.502;6.918;2024-03-22T04:33:20;29.92;;;24.75;;
17214;SDS011;8723;51.502;6.918;2024-03-22T04:35:47;33.85;;;26.33;;
17214;SDS011;8723;51.502;6.918;2024-03-22T04:38:13;32.60;;;25.15;;
17214;SDS011;8723;51.502;6.918;2024-03-22T04:40:40;28.88;;;24.52;;
17214;SDS011;8723;51.502;6.918;2024-03-22T04:43:09;29.75;;;23.77;;
17214;SDS011;8723;51.502;6.918;2024-03-22T04:45:35;29.00;;;23.50;;
17214;SDS011;8723;51.502;6.918;2024-03-22T04:48:03;32.92;;;25.30;;
17214;SDS011;8723;51.502;6.918;2024-03-22T04:50:29;28.92;;;20.30;;
17214;SDS011;8723;51.502;6.918;2024-03-22T04:52:56;31.25;;;23.05;;
17214;SDS011;8723;51.502;6.918;2024-03-22T04:55:22;30.80;;;22.63;;
17214;SDS011;8723;51.502;6.918;2024-03-22T04:57:51;31.97;;;22.83;;
17214;SDS011;8723;51.502;6.918;2024-03-22T05:00:18;30.02;;;21.25;;
17214;SDS011;8723;51.502;6.918;2024-03-22T05:02:46;29.55;;;21.77;;
17214;SDS011;8723;51.502;6.918;2024-03-22T05:05:12;31.75;;;24.80;;
17214;SDS011;8723;51.502;6.918;2024-03-22T05:07:40;27.88;;;24.50;;
17214;SDS011;8723;51.502;6.918;2024-03-22T05:10:06;28.63;;;24.05;;
17214;SDS011;8723;51.502;6.918;2024-03-22T05:12:34;28.67;;;24.15;;
17214;SDS011;8723;51.502;6.918;2024-03-22T05:15:00;28.47;;;22.87;;
17214;SDS011;8723;51.502;6.918;2024-03-22T05:17:28;29.92;;;24.80;;
17214;SDS011;8723;51.502;6.918;2024-03-22T05:19:56;29.25;;;24.42;;
17214;SDS011;8723;51.502;6.918;2024-03-22T05:22:24;31.00;;;24.15;;
17214;SDS011;8723;51.502;6.918;2024-03-22T05:24:50;25.30;;;22.60;;
17214;SDS011;8723;51.502;6.918;2024-03-22T05:27:17;24.90;;;21.63;;
17214;SDS011;8723;51.502;6.918;2024-03-22T05:29:43;29.63;;;24.27;;
17214;SDS011;8723;51.502;6.918;2024-03-22T05:32:10;29.85;;;24.35;;
17214;SDS011;8723;51.502;6.918;2024-03-22T05:34:38;29.90;;;23.87;;
17214;SDS011;8723;51.502;6.918;2024-03-22T05:37:05;27.05;;;23.63;;
17214;SDS011;8723;51.502;6.918;2024-03-22T05:39:31;28.30;;;22.92;;
17214;SDS011;8723;51.502;6.918;2024-03-22T05:41:59;30.55;;;24.08;;
17214;SDS011;8723;51.502;6.918;2024-03-22T05:44:25;28.80;;;23.23;;
17214;SDS011;8723;51.502;6.918;2024-03-22T05:46:52;31.48;;;24.27;;
17214;SDS011;8723;51.502;6.918;2024-03-22T05:49:18;28.08;;;23.33;;
17214;SDS011;8723;51.502;6.918;2024-03-22T05:51:47;26.70;;;22.35;;
17214;SDS011;8723;51.502;6.918;2024-03-22T05:54:13;26.67;;;21.88;;
17214;SDS011;8723;51.502;6.918;2024-03-22T05:56:40;24.45;;;21.40;;
17214;SDS011;8723;51.502;6.918;2024-03-22T05:59:07;28.30;;;21.75;;
17214;SDS011;8723;51.502;6.918;2024-03-22T06:01:33;26.67;;;23.05;;
17214;SDS011;8723;51.502;6.918;2024-03-22T06:04:00;24.73;;;21.63;;
17214;SDS011;8723;51.502;6.918;2024-03-22T06:06:27;25.73;;;22.50;;
17214;SDS011;8723;51.502;6.918;2024-03-22T06:08:55;23.00;;;20.30;;
17214;SDS011;8723;51.502;6.918;2024-03-22T06:11:25;25.57;;;22.73;;
17214;SDS011;8723;51.502;6.918;2024-03-22T06:13:52;27.42;;;22.95;;
17214;SDS011;8723;51.502;6.918;2024-03-22T06:16:18;25.42;;;21.73;;
17214;SDS011;8723;51.502;6.918;2024-03-22T06:18:45;27.08;;;22.80;;
17214;SDS011;8723;51.502;6.918;2024-03-22T06:21:12;26.77;;;21.90;;
17214;SDS011;8723;51.502;6.918;2024-03-22T06:23:39;24.92;;;22.20;;
17214;SDS011;8723;51.502;6.918;2024-03-22T06:26:08;25.88;;;21.20;;
17214;SDS011;8723;51.502;6.918;2024-03-22T06:28:35;25.88;;;21.25;;
17214;SDS011;8723;51.502;6.918;2024-03-22T06:31:01;24.90;;;21.75;;
17214;SDS011;8723;51.502;6.918;2024-03-22T06:33:28;26.98;;;21.88;;
17214;SDS011;8723;51.502;6.918;2024-03-22T06:35:55;24.90;;;21.95;;
17214;SDS011;8723;51.502;6.918;2024-03-22T06:38:22;26.08;;;21.20;;
17214;SDS011;8723;51.502;6.918;2024-03-22T06:40:49;28.10;;;22.50;;
17214;SDS011;8723;51.502;6.918;2024-03-22T06:43:16;24.40;;;21.80;;
17214;SDS011;8723;51.502;6.918;2024-03-22T06:45:44;25.60;;;22.05;;
17214;SDS011;8723;51.502;6.918;2024-03-22T06:48:10;25.13;;;22.30;;
17214;SDS011;8723;51.502;6.918;2024-03-22T06:50:37;24.33;;;21.70;;
17214;SDS011;8723;51.502;6.918;2024-03-22T06:53:03;23.45;;;20.08;;
17214;SDS011;8723;51.502;6.918;2024-03-22T06:55:30;26.38;;;22.58;;
17214;SDS011;8723;51.502;6.918;2024-03-22T06:57:56;25.27;;;21.10;;
17214;SDS011;8723;51.502;6.918;2024-03-22T07:00:25;23.63;;;20.85;;
17214;SDS011;8723;51.502;6.918;2024-03-22T07:02:51;23.95;;;21.02;;
17214;SDS011;8723;51.502;6.918;2024-03-22T07:05:18;26.85;;;21.83;;
17214;SDS011;8723;51.502;6.918;2024-03-22T07:07:44;26.92;;;22.25;;
17214;SDS011;8723;51.502;6.918;2024-03-22T07:10:12;23.88;;;20.15;;
17214;SDS011;8723;51.502;6.918;2024-03-22T07:12:38;24.23;;;21.53;;
17214;SDS011;8723;51.502;6.918;2024-03-22T07:15:05;22.77;;;20.38;;
17214;SDS011;8723;51.502;6.918;2024-03-22T07:17:33;22.52;;;20.13;;
17214;SDS011;8723;51.502;6.918;2024-03-22T07:20:00;22.75;;;19.58;;
17214;SDS011;8723;51.502;6.918;2024-03-22T07:22:27;21.27;;;18.73;;
17214;SDS011;8723;51.502;6.918;2024-03-22T07:24:54;24.50;;;20.65;;
17214;SDS011;8723;51.502;6.918;2024-03-22T07:27:20;23.27;;;20.77;;
17214;SDS011;8723;51.502;6.918;2024-03-22T07:29:47;27.60;;;21.45;;
17214;SDS011;8723;51.502;6.918;2024-03-22T07:32:14;26.45;;;20.60;;
17214;SDS011;8723;51.502;6.918;2024-03-22T07:34:45;28.13;;;20.95;;
17214;SDS011;8723;51.502;6.918;2024-03-22T07:37:11;23.48;;;19.20;;
17214;SDS011;8723;51.502;6.918;2024-03-22T07:39:38;22.90;;;19.83;;
17214;SDS011;8723;51.502;6.918;2024-03-22T07:42:04;22.73;;;18.67;;
17214;SDS011;8723;51.502;6.918;2024-03-22T07:44:32;22.02;;;19.50;;
17214;SDS011;8723;51.502;6.918;2024-03-22T07:46:58;21.20;;;18.88;;
17214;SDS011;8723;51.502;6.918;2024-03-22T07:49:28;21.63;;;18.17;;
17214;SDS011;8723;51.502;6.918;2024-03-22T07:51:58;20.80;;;18.23;;
17214;SDS011;8723;51.502;6.918;2024-03-22T07:54:25;21.13;;;18.40;;
17214;SDS011;8723;51.502;6.918;2024-03-22T07:56:51;21.83;;;18.27;;
17214;SDS011;8723;51.502;6.918;2024-03-22T07:59:18;18.85;;;16.88;;
17214;SDS011;8723;51.502;6.918;2024-03-22T08:01:44;19.15;;;16.58;;
17214;SDS011;8723;51.502;6.918;2024-03-22T08:04:12;18.30;;;16.17;;
17214;SDS011;8723;51.502;6.918;2024-03-22T08:06:38;18.43;;;16.33;;
17214;SDS011;8723;51.502;6.918;2024-03-22T08:09:06;18.97;;;16.97;;
17214;SDS011;8723;51.502;6.918;2024-03-22T08:11:32;16.95;;;15.15;;
17214;SDS011;8723;51.502;6.918;2024-03-22T08:14:00;18.10;;;16.17;;
17214;SDS011;8723;51.502;6.918;2024-03-22T08:16:28;19.50;;;16.10;;
17214;SDS011;8723;51.502;6.918;2024-03-22T08:18:55;16.83;;;15.02;;
17214;SDS011;8723;51.502;6.918;2024-03-22T08:21:22;18.00;;;15.50;;
17214;SDS011;8723;51.502;6.918;2024-03-22T08:23:49;15.75;;;14.05;;
17214;SDS011;8723;51.502;6.918;2024-03-22T08:26:17;17.00;;;14.85;;
17214;SDS011;8723;51.502;6.918;2024-03-22T08:28:44;15.65;;;13.82;;
17214;SDS011;8723;51.502;6.918;2024-03-22T08:31:10;17.33;;;15.47;;
17214;SDS011;8723;51.502;6.918;2024-03-22T08:33:38;16.70;;;14.43;;
17214;SDS011;8723;51.502;6.918;2024-03-22T08:36:04;15.80;;;13.80;;
17214;SDS011;8723;51.502;6.918;2024-03-22T08:38:31;16.48;;;13.70;;
17214;SDS011;8723;51.502;6.918;2024-03-22T08:40:58;16.65;;;13.75;;
17214;SDS011;8723;51.502;6.918;2024-03-22T08:43:26;14.82;;;13.27;;
17214;SDS011;8723;51.502;6.918;2024-03-22T08:45:54;14.82;;;13.27;;
17214;SDS011;8723;51.502;6.918;2024-03-22T08:48:22;15.23;;;13.35;;
17214;SDS011;8723;51.502;6.918;2024-03-22T08:50:49;15.80;;;13.60;;
17214;SDS011;8723;51.502;6.918;2024-03-22T08:53:16;15.38;;;13.57;;
17214;SDS011;8723;51.502;6.918;2024-03-22T08:55:45;15.52;;;13.77;;
17214;SDS011;8723;51.502;6.918;2024-03-22T08:58:12;16.58;;;14.23;;
17214;SDS011;8723;51.502;6.918;2024-03-22T09:00:40;15.75;;;13.52;;
17214;SDS011;8723;51.502;6.918;2024-03-22T09:03:07;17.15;;;13.57;;
17214;SDS011;8723;51.502;6.918;2024-03-22T09:05:33;14.02;;;12.63;;
17214;SDS011;8723;51.502;6.918;2024-03-22T09:08:01;14.93;;;12.77;;
17214;SDS011;8723;51.502;6.918;2024-03-22T09:10:28;15.02;;;12.90;;
17214;SDS011;8723;51.502;6.918;2024-03-22T09:12:55;15.07;;;13.38;;
17214;SDS011;8723;51.502;6.918;2024-03-22T09:15:22;13.20;;;11.90;;
17214;SDS011;8723;51.502;6.918;2024-03-22T09:17:51;12.93;;;11.63;;
17214;SDS011;8723;51.502;6.918;2024-03-22T09:20:17;14.32;;;12.07;;
17214;SDS011;8723;51.502;6.918;2024-03-22T09:22:44;13.20;;;11.35;;
17214;SDS011;8723;51.502;6.918;2024-03-22T09:25:10;13.05;;;11.48;;
17214;SDS011;8723;51.502;6.918;2024-03-22T09:27:37;15.93;;;12.00;;
17214;SDS011;8723;51.502;6.918;2024-03-22T09:30:04;12.50;;;11.20;;
17214;SDS011;8723;51.502;6.918;2024-03-22T09:32:31;13.20;;;11.43;;
17214;SDS011;8723;51.502;6.918;2024-03-22T09:34:59;13.02;;;11.40;;
17214;SDS011;8723;51.502;6.918;2024-03-22T09:37:26;13.45;;;11.63;;
17214;SDS011;8723;51.502;6.918;2024-03-22T09:39:52;12.70;;;11.40;;
17214;SDS011;8723;51.502;6.918;2024-03-22T09:42:19;12.82;;;10.90;;
17214;SDS011;8723;51.502;6.918;2024-03-22T09:44:48;14.55;;;11.63;;
17214;SDS011;8723;51.502;6.918;2024-03-22T09:47:16;13.82;;;11.27;;
17214;SDS011;8723;51.502;6.918;2024-03-22T09:49:43;14.60;;;12.10;;
17214;SDS011;8723;51.502;6.918;2024-03-22T09:52:13;14.23;;;11.95;;
17214;SDS011;8723;51.502;6.918;2024-03-22T09:54:40;14.10;;;11.70;;
17214;SDS011;8723;51.502;6.918;2024-03-22T09:57:08;13.82;;;11.27;;
17214;SDS011;8723;51.502;6.918;2024-03-22T09:59:35;14.20;;;11.77;;
17214;SDS011;8723;51.502;6.918;2024-03-22T10:02:02;12.63;;;11.32;;
17214;SDS011;8723;51.502;6.918;2024-03-22T10:04:29;13.95;;;12.10;;
17214;SDS011;8723;51.502;6.918;2024-03-22T10:06:56;14.07;;;12.25;;
17214;SDS011;8723;51.502;6.918;2024-03-22T10:09:29;13.85;;;12.23;;
17214;SDS011;8723;51.502;6.918;2024-03-22T10:11:56;13.63;;;11.40;;
17214;SDS011;8723;51.502;6.918;2024-03-22T10:14:22;12.95;;;11.65;;
17214;SDS011;8723;51.502;6.918;2024-03-22T10:16:50;13.32;;;12.00;;
17214;SDS011;8723;51.502;6.918;2024-03-22T10:19:18;13.73;;;12.23;;
17214;SDS011;8723;51.502;6.918;2024-03-22T10:21:45;13.50;;;11.80;;
17214;SDS011;8723;51.502;6.918;2024-03-22T10:24:11;13.30;;;11.90;;
17214;SDS011;8723;51.502;6.918;2024-03-22T10:26:40;12.60;;;11.30;;
17214;SDS011;8723;51.502;6.918;2024-03-22T10:29:06;13.07;;;11.60;;
17214;SDS011;8723;51.502;6.918;2024-03-22T10:31:34;14.38;;;11.93;;
17214;SDS011;8723;51.502;6.918;2024-03-22T10:34:01;13.27;;;10.80;;
17214;SDS011;8723;51.502;6.918;2024-03-22T10:36:30;13.77;;;12.35;;
17214;SDS011;8723;51.502;6.918;2024-03-22T10:38:57;15.77;;;12.18;;
17214;SDS011;8723;51.502;6.918;2024-03-22T10:41:25;12.73;;;11.43;;
17214;SDS011;8723;51.502;6.918;2024-03-22T10:43:52;13.50;;;12.03;;
17214;SDS011;8723;51.502;6.918;2024-03-22T10:46:20;15.48;;;12.23;;
17214;SDS011;8723;51.502;6.918;2024-03-22T10:48:46;13.30;;;11.90;;
17214;SDS011;8723;51.502;6.918;2024-03-22T10:51:14;14.13;;;11.68;;
17214;SDS011;8723;51.502;6.918;2024-03-22T10:53:41;12.55;;;11.25;;
17214;SDS011;8723;51.502;6.918;2024-03-22T10:56:08;13.68;;;11.75;;
17214;SDS011;8723;51.502;6.918;2024-03-22T10:58:39;11.15;;;10.05;;
17214;SDS011;8723;51.502;6.918;2024-03-22T11:01:11;13.15;;;11.65;;
17214;SDS011;8723;51.502;6.918;2024-03-22T11:03:46;12.80;;;11.45;;
17214;SDS011;8723;51.502;6.918;2024-03-22T11:06:17;13.55;;;12.00;;
17214;SDS011;8723;51.502;6.918;2024-03-22T11:08:43;12.03;;;10.90;;
17214;SDS011;8723;51.502;6.918;2024-03-22T11:11:11;12.73;;;11.48;;
17214;SDS011;8723;51.502;6.918;2024-03-22T11:13:38;12.63;;;11.30;;
17214;SDS011;8723;51.502;6.918;2024-03-22T11:16:06;14.00;;;12.40;;
17214;SDS011;8723;51.502;6.918;2024-03-22T11:18:34;12.65;;;11.35;;
17214;SDS011;8723;51.502;6.918;2024-03-22T11:21:01;12.90;;;11.57;;
17214;SDS011;8723;51.502;6.918;2024-03-22T11:23:28;12.43;;;10.88;;
17214;SDS011;8723;51.502;6.918;2024-03-22T11:25:56;13.77;;;11.70;;
17214;SDS011;8723;51.502;6.918;2024-03-22T11:28:22;14.13;;;12.30;;
17214;SDS011;8723;51.502;6.918;2024-03-22T11:30:49;13.52;;;12.23;;
17214;SDS011;8723;51.502;6.918;2024-03-22T11:33:15;15.07;;;11.73;;
17214;SDS011;8723;51.502;6.918;2024-03-22T11:35:44;11.50;;;10.48;;
17214;SDS011;8723;51.502;6.918;2024-03-22T11:38:11;13.15;;;11.85;;
17214;SDS011;8723;51.502;6.918;2024-03-22T11:40:38;13.60;;;12.20;;
17214;SDS011;8723;51.502;6.918;2024-03-22T11:43:04;13.52;;;11.93;;
17214;SDS011;8723;51.502;6.918;2024-03-22T11:45:32;13.25;;;12.05;;
17214;SDS011;8723;51.502;6.918;2024-03-22T11:48:01;13.05;;;11.85;;
17214;SDS011;8723;51.502;6.918;2024-03-22T11:50:28;14.70;;;13.20;;
17214;SDS011;8723;51.502;6.918;2024-03-22T11:52:56;12.15;;;11.02;;
17214;SDS011;8723;51.502;6.918;2024-03-22T11:55:26;14.93;;;13.30;;
17214;SDS011;8723;51.502;6.918;2024-03-22T11:57:52;13.80;;;12.38;;
17214;SDS011;8723;51.502;6.918;2024-03-22T12:00:20;12.90;;;11.48;;
17214;SDS011;8723;51.502;6.918;2024-03-22T12:02:47;13.23;;;11.73;;
17214;SDS011;8723;51.502;6.918;2024-03-22T12:05:15;13.60;;;12.20;;
17214;SDS011;8723;51.502;6.918;2024-03-22T12:07:41;11.75;;;10.65;;
17214;SDS011;8723;51.502;6.918;2024-03-22T12:10:09;11.98;;;10.57;;
17214;SDS011;8723;51.502;6.918;2024-03-22T12:12:35;13.70;;;12.20;;
17214;SDS011;8723;51.502;6.918;2024-03-22T12:15:03;13.65;;;12.35;;
17214;SDS011;8723;51.502;6.918;2024-03-22T12:17:29;13.90;;;12.63;;
17214;SDS011;8723;51.502;6.918;2024-03-22T12:19:57;15.88;;;14.27;;
17214;SDS011;8723;51.502;6.918;2024-03-22T12:22:23;14.35;;;13.05;;
17214;SDS011;8723;51.502;6.918;2024-03-22T12:24:50;14.10;;;12.70;;
17214;SDS011;8723;51.502;6.918;2024-03-22T12:27:18;15.25;;;13.75;;
17214;SDS011;8723;51.502;6.918;2024-03-22T12:29:45;13.77;;;12.38;;
17214;SDS011;8723;51.502;6.918;2024-03-22T12:32:11;15.90;;;14.30;;
17214;SDS011;8723;51.502;6.918;2024-03-22T12:34:38;14.93;;;13.52;;
17214;SDS011;8723;51.502;6.918;2024-03-22T12:37:04;15.65;;;14.15;;
17214;SDS011;8723;51.502;6.918;2024-03-22T12:39:32;15.13;;;13.63;;
17214;SDS011;8723;51.502;6.918;2024-03-22T12:41:58;15.40;;;13.95;;
17214;SDS011;8723;51.502;6.918;2024-03-22T12:44:27;16.40;;;14.80;;
17214;SDS011;8723;51.502;6.918;2024-03-22T12:46:53;14.63;;;13.13;;
17214;SDS011;8723;51.502;6.918;2024-03-22T12:49:21;17.13;;;15.45;;
17214;SDS011;8723;51.502;6.918;2024-03-22T12:51:47;17.25;;;15.57;;
17214;SDS011;8723;51.502;6.918;2024-03-22T12:54:14;16.63;;;15.03;;
17214;SDS011;8723;51.502;6.918;2024-03-22T12:56:43;17.00;;;15.40;;
17214;SDS011;8723;51.502;6.918;2024-03-22T12:59:10;15.48;;;14.02;;
17214;SDS011;8723;51.502;6.918;2024-03-22T13:01:38;14.73;;;13.30;;
17214;SDS011;8723;51.502;6.918;2024-03-22T13:04:05;16.13;;;14.63;;
17214;SDS011;8723;51.502;6.918;2024-03-22T13:06:31;16.70;;;15.05;;
17214;SDS011;8723;51.502;6.918;2024-03-22T13:08:59;16.92;;;15.32;;
17214;SDS011;8723;51.502;6.918;2024-03-22T13:11:25;15.80;;;14.40;;
17214;SDS011;8723;51.502;6.918;2024-03-22T13:13:52;17.08;;;15.30;;
17214;SDS011;8723;51.502;6.918;2024-03-22T13:16:18;15.75;;;14.15;;
17214;SDS011;8723;51.502;6.918;2024-03-22T13:18:47;16.08;;;14.48;;
17214;SDS011;8723;51.502;6.918;2024-03-22T13:21:13;14.93;;;13.52;;
17214;SDS011;8723;51.502;6.918;2024-03-22T13:23:40;14.52;;;13.05;;
17214;SDS011;8723;51.502;6.918;2024-03-22T13:26:06;14.70;;;12.90;;
17214;SDS011;8723;51.502;6.918;2024-03-22T13:28:34;15.60;;;14.18;;
17214;SDS011;8723;51.502;6.918;2024-03-22T13:31:01;15.50;;;14.10;;
17214;SDS011;8723;51.502;6.918;2024-03-22T13:33:31;15.45;;;13.43;;
17214;SDS011;8723;51.502;6.918;2024-03-22T13:35:58;15.50;;;14.00;;
17214;SDS011;8723;51.502;6.918;2024-03-22T13:38:26;15.03;;;13.53;;
17214;SDS011;8723;51.502;6.918;2024-03-22T13:40:53;14.40;;;13.13;;
17214;SDS011;8723;51.502;6.918;2024-03-22T13:43:21;18.40;;;16.63;;
17214;SDS011;8723;51.502;6.918;2024-03-22T13:45:48;21.20;;;19.13;;
17214;SDS011;8723;51.502;6.918;2024-03-22T13:48:18;18.17;;;16.48;;
17214;SDS011;8723;51.502;6.918;2024-03-22T13:50:45;16.73;;;15.18;;
17214;SDS011;8723;51.502;6.918;2024-03-22T13:53:14;18.98;;;17.17;;
17214;SDS011;8723;51.502;6.918;2024-03-22T13:55:41;20.10;;;18.30;;
17214;SDS011;8723;51.502;6.918;2024-03-22T13:58:09;18.13;;;16.42;;
17214;SDS011;8723;51.502;6.918;2024-03-22T14:00:35;15.13;;;13.60;;
17214;SDS011;8723;51.502;6.918;2024-03-22T14:03:02;15.25;;;13.65;;
17214;SDS011;8723;51.502;6.918;2024-03-22T14:05:28;15.05;;;13.65;;
17214;SDS011;8723;51.502;6.918;2024-03-22T14:07:56;16.30;;;14.80;;
17214;SDS011;8723;51.502;6.918;2024-03-22T14:10:23;16.75;;;15.15;;
17214;SDS011;8723;51.502;6.918;2024-03-22T14:12:51;16.08;;;14.45;;
17214;SDS011;8723;51.502;6.918;2024-03-22T14:15:18;15.88;;;14.45;;
17214;SDS011;8723;51.502;6.918;2024-03-22T14:17:45;16.63;;;15.05;;
17214;SDS011;8723;51.502;6.918;2024-03-22T14:20:11;17.17;;;15.57;;
17214;SDS011;8723;51.502;6.918;2024-03-22T14:22:38;16.23;;;14.68;;
17214;SDS011;8723;51.502;6.918;2024-03-22T14:25:05;15.60;;;14.02;;
17214;SDS011;8723;51.502;6.918;2024-03-22T14:27:34;15.63;;;14.23;;
17214;SDS011;8723;51.502;6.918;2024-03-22T14:30:01;18.00;;;16.30;;
17214;SDS011;8723;51.502;6.918;2024-03-22T14:32:30;17.97;;;16.37;;
17214;SDS011;8723;51.502;6.918;2024-03-22T14:34:56;19.03;;;17.23;;